Weather reports worldwide

Advertisment
Lorca, Spain (8426): temperature & dewpoint: 11.06.2019 05:00:00 - 17.06.2019 05:00:00 (CEST)Lorca, Spain (8426): wind speed & gusts: 11.06.2019 05:00:00 - 17.06.2019 05:00:00 (CEST)Lorca, Spain (8426): wind direction: 11.06.2019 05:00:00 - 17.06.2019 05:00:00 (CEST)Lorca, Spain (8426): precipitation: 11.06.2019 05:00:00 - 17.06.2019 05:00:00 (CEST)
Date & Time tt [°C] td [°C] ff [km/h] ff [kn] fx [km/h] fx [kn] dd rr [mm]
17.06.2019 05:00:00 15,2 9,9 4 2 10 5 NW 0,0
17.06.2019 04:00:00 14,5 9,7 1 0 4 2 WNW 0,0
17.06.2019 03:00:00 15,8 10,5 1 1 8 5 SSW 0,0
17.06.2019 02:00:00 16,2 10,8 2 1 4 2 N -
17.06.2019 01:00:00 17,1 11,8 1 0 3 1 N 0,0
17.06.2019 00:00:00 18,2 11,6 1 1 4 2 NNE 0,0
16.06.2019 23:00:00 19,2 10,5 1 1 7 4 NNE 0,0
16.06.2019 22:00:00 20,5 10,0 3 2 11 6 ENE 0,0
16.06.2019 21:00:00 22,8 10,9 4 2 11 6 ENE 0,0
16.06.2019 20:00:00 23,8 11,4 2 1 14 7 ENE -
16.06.2019 19:00:00 24,9 11,4 5 3 20 11 ENE 0,0
16.06.2019 18:00:00 25,6 11,8 6 3 19 10 ENE 0,0
16.06.2019 17:00:00 25,8 12,2 6 4 20 11 ENE 0,0
16.06.2019 16:00:00 24,7 12,6 4 2 21 11 E 0,0
16.06.2019 15:00:00 25,0 11,6 3 2 18 10 E 0,0
16.06.2019 14:00:00 25,4 10,8 4 2 21 11 E -
16.06.2019 13:00:00 25,7 9,9 5 3 21 11 ENE 0,0
16.06.2019 12:00:00 24,0 9,2 7 4 19 11 ENE 0,0
16.06.2019 11:00:00 22,7 8,4 5 3 18 10 ENE 0,0
16.06.2019 10:00:00 21,2 8,1 6 4 11 6 NNE 0,0
16.06.2019 09:00:00 18,8 7,0 5 3 9 5 NE 0,0
16.06.2019 08:00:00 16,0 5,9 2 1 7 4 N -
16.06.2019 07:00:00 14,9 4,8 4 2 9 5 N 0,0
16.06.2019 06:00:00 15,5 4,8 3 2 11 6 N 0,0
16.06.2019 05:00:00 16,0 4,6 6 3 14 8 NNE 0,0
16.06.2019 04:00:00 17,0 5,3 7 4 14 7 N 0,0
16.06.2019 03:00:00 17,3 5,6 5 3 9 5 NNE 0,0
16.06.2019 02:00:00 17,0 5,3 1 1 4 2 N -
16.06.2019 01:00:00 18,0 5,3 0 0 5 3 ENE 0,0
16.06.2019 00:00:00 18,8 5,6 1 0 5 3 ENE 0,0
15.06.2019 23:00:00 20,6 6,5 1 0 5 3 SSW 0,0
15.06.2019 22:00:00 22,8 6,5 3 2 9 5 S 0,0
15.06.2019 21:00:00 24,6 7,3 5 3 16 9 SW 0,0
15.06.2019 20:00:00 25,7 7,7 10 5 21 11 SW -
15.06.2019 19:00:00 26,1 7,7 10 5 24 13 SSW 0,0
15.06.2019 18:00:00 26,4 8,8 13 7 24 13 SSW 0,0
15.06.2019 17:00:00 27,3 10,0 11 6 26 14 SSW 0,0
15.06.2019 16:00:00 26,7 9,9 12 7 28 15 SW 0,0
15.06.2019 15:00:00 27,6 10,3 11 6 25 13 SSW 0,0
15.06.2019 14:00:00 28,4 8,7 4 2 15 8 ESE -
15.06.2019 13:00:00 27,6 8,0 3 2 14 8 ENE 0,0
15.06.2019 12:00:00 26,5 8,5 5 3 15 8 NE 0,0
15.06.2019 11:00:00 24,5 7,6 5 3 16 9 N 0,0
15.06.2019 10:00:00 22,6 6,7 6 4 21 11 N 0,0
15.06.2019 09:00:00 19,7 5,3 9 5 20 11 NNW 0,0
15.06.2019 08:00:00 18,0 4,1 6 3 22 12 NNW -
15.06.2019 07:00:00 17,9 3,4 3 2 13 7 N 0,0
15.06.2019 06:00:00 19,0 3,6 5 3 18 10 NNW 0,0
15.06.2019 05:00:00 19,2 3,8 6 4 15 8 N 0,0
15.06.2019 04:00:00 20,1 4,5 5 3 16 8 NNW 0,0
15.06.2019 03:00:00 21,0 5,3 6 3 14 8 NNW 0,0
15.06.2019 02:00:00 20,8 7,7 1 1 16 9 W -
15.06.2019 01:00:00 22,1 6,4 5 3 13 7 NW 0,0
15.06.2019 00:00:00 22,0 8,5 2 1 9 5 N 0,0
14.06.2019 23:00:00 22,1 8,3 1 1 5 3 ESE 0,0
14.06.2019 22:00:00 24,1 8,5 2 1 9 5 SSW 0,0
14.06.2019 21:00:00 26,5 9,3 5 3 14 8 S 0,0
14.06.2019 20:00:00 27,9 10,2 6 4 21 12 S -
14.06.2019 19:00:00 28,5 11,1 10 6 28 15 S 0,0
14.06.2019 18:00:00 29,1 12,1 10 5 28 15 S 0,0
14.06.2019 17:00:00 29,4 13,6 11 6 25 14 S 0,0
14.06.2019 16:00:00 29,1 13,8 10 5 21 12 S 0,0
14.06.2019 15:00:00 28,4 13,9 9 5 19 10 S 0,0
14.06.2019 14:00:00 27,4 14,4 6 3 17 9 SSW -
14.06.2019 13:00:00 26,0 13,5 7 4 15 8 S 0,0
14.06.2019 12:00:00 24,4 14,2 4 2 13 7 SSE 0,0
14.06.2019 11:00:00 22,2 14,3 4 2 9 5 ENE 0,0
14.06.2019 10:00:00 20,5 16,1 1 1 6 3 E 0,0
14.06.2019 09:00:00 18,0 16,3 1 1 4 2 SW 0,0
14.06.2019 08:00:00 17,6 16,3 0 0 9 5 S -
14.06.2019 07:00:00 17,6 16,3 5 3 22 12 NW 1,1
14.06.2019 06:00:00 18,2 14,7 5 3 12 6 WSW 0,0
14.06.2019 05:00:00 18,3 14,4 5 3 13 7 SW 0,0
14.06.2019 04:00:00 18,7 14,4 3 2 13 7 S 0,0
14.06.2019 03:00:00 18,8 14,7 7 4 18 10 SW 0,0
14.06.2019 02:00:00 18,7 14,8 6 3 20 11 SSW -
14.06.2019 01:00:00 18,9 14,6 5 3 11 6 SSW 0,0
14.06.2019 00:00:00 18,9 14,3 6 3 11 6 SSW 0,0
13.06.2019 23:00:00 19,5 12,5 1 1 6 4 N 0,0
13.06.2019 22:00:00 20,1 12,3 1 1 8 4 E 0,0
13.06.2019 21:00:00 21,3 12,7 4 2 15 8 ENE 0,0
13.06.2019 20:00:00 23,4 13,9 4 2 19 11 E -
13.06.2019 19:00:00 24,9 14,6 5 3 21 12 E 0,0
13.06.2019 18:00:00 25,9 15,0 6 3 24 13 E 0,0
13.06.2019 17:00:00 26,7 15,1 5 3 21 12 E 0,0
13.06.2019 16:00:00 27,3 15,6 5 3 25 13 E 0,0
13.06.2019 15:00:00 26,9 15,0 6 3 25 13 E 0,0
13.06.2019 14:00:00 26,1 15,4 8 4 24 13 ENE -
13.06.2019 13:00:00 24,6 15,0 5 3 28 15 E 0,0
13.06.2019 12:00:00 23,5 14,8 9 5 25 14 ENE 0,0
13.06.2019 11:00:00 22,1 15,0 11 6 24 13 ENE 0,0
13.06.2019 10:00:00 20,6 15,6 7 4 19 10 ENE 0,0
13.06.2019 09:00:00 18,6 14,7 5 3 16 9 NE 0,0
13.06.2019 08:00:00 17,6 13,6 5 3 10 6 N -
13.06.2019 07:00:00 17,2 13,6 4 2 11 6 N 0,0
13.06.2019 06:00:00 17,5 13,9 5 3 14 7 N 0,0
13.06.2019 05:00:00 17,0 13,9 7 4 16 9 NNW 0,0
13.06.2019 04:00:00 16,7 14,1 3 1 5 3 NNE 0,0
13.06.2019 03:00:00 16,3 14,3 1 0 9 5 ENE 0,0
13.06.2019 02:00:00 16,3 13,8 1 1 5 3 NE -
13.06.2019 01:00:00 17,0 14,0 1 0 9 5 E 0,0
13.06.2019 00:00:00 17,6 14,7 3 1 10 5 ENE 0,0
12.06.2019 23:00:00 18,0 14,3 3 1 15 8 E 0,0
12.06.2019 22:00:00 18,9 13,9 4 2 16 9 E 0,0
12.06.2019 21:00:00 20,4 13,9 5 3 19 11 ENE 0,0
12.06.2019 20:00:00 21,5 14,1 3 2 16 9 E -
12.06.2019 19:00:00 22,6 14,1 3 2 16 9 ESE 0,0
12.06.2019 18:00:00 24,0 14,1 5 3 16 8 ESE 0,0
12.06.2019 17:00:00 25,0 14,1 4 2 23 12 E 0,0
12.06.2019 16:00:00 26,0 13,2 6 3 22 12 E 0,0
12.06.2019 15:00:00 25,0 12,5 5 3 18 10 ENE 0,0
12.06.2019 14:00:00 24,3 13,0 5 3 23 13 ENE -
12.06.2019 13:00:00 23,3 12,6 3 2 18 10 NE 0,0
12.06.2019 12:00:00 22,1 12,3 4 2 17 9 E 0,0
12.06.2019 11:00:00 20,2 11,9 6 3 21 11 ENE 0,0
12.06.2019 10:00:00 18,8 11,1 6 4 22 12 ENE 0,0
12.06.2019 09:00:00 17,4 10,0 5 3 18 10 E 0,0
12.06.2019 08:00:00 16,3 11,4 4 2 13 7 E -
12.06.2019 07:00:00 15,8 11,8 5 3 15 8 ENE 0,0
12.06.2019 06:00:00 15,9 11,9 5 3 13 7 ENE 0,0
12.06.2019 05:00:00 16,2 12,3 2 1 11 6 ENE 0,0
12.06.2019 04:00:00 16,5 13,1 2 1 9 5 E 0,0
12.06.2019 03:00:00 16,6 13,2 2 1 8 4 NE 0,0
12.06.2019 02:00:00 16,8 13,4 3 1 11 6 ENE -
12.06.2019 01:00:00 17,1 13,5 3 2 14 8 E 0,0
12.06.2019 00:00:00 17,5 13,7 3 2 18 10 E 0,0
11.06.2019 23:00:00 17,8 14,3 5 3 20 11 E 0,0
11.06.2019 22:00:00 18,6 14,7 7 4 28 15 E 0,0
11.06.2019 21:00:00 20,7 14,8 8 4 41 22 E 0,0
11.06.2019 20:00:00 25,6 11,0 7 4 31 17 ENE -
11.06.2019 19:00:00 27,6 9,9 4 2 20 11 SE 0,0
11.06.2019 18:00:00 27,6 9,9 10 5 25 13 SSE 0,0
11.06.2019 17:00:00 28,2 10,4 12 6 27 15 S 0,0
11.06.2019 16:00:00 27,8 10,9 11 6 29 15 S 0,0
11.06.2019 15:00:00 28,8 12,2 11 6 29 16 S 0,0
11.06.2019 14:00:00 28,6 12,1 13 7 26 14 S -
11.06.2019 13:00:00 28,5 12,4 8 5 24 13 S 0,0
11.06.2019 12:00:00 27,7 10,9 4 2 14 7 SSE 0,0
11.06.2019 11:00:00 25,8 10,8 4 2 14 8 S 0,0
11.06.2019 10:00:00 23,6 10,3 5 3 13 7 NNW 0,0
11.06.2019 09:00:00 19,8 9,3 3 2 9 5 NW 0,0
11.06.2019 08:00:00 16,1 7,8 1 1 5 3 SW -
11.06.2019 07:00:00 14,6 7,0 3 2 7 4 NW 0,0
11.06.2019 06:00:00 14,1 7,1 0 0 6 3 NW 0,0
11.06.2019 05:00:00 14,9 6,4 2 1 6 3 SSE 0,0

tt = temperature
td = dewpoint
ff = wind speed
fx = gusts
dd = wind direction
rr = precipitation

Next stations